Time;durP1;ratioP1;P1;durP2;ratioP2;P2;SDS_P1;SDS_P2;PMS_P1;PMS_P2;Temp;Humidity;BMP_temperature;BMP_pressure;BME280_temperature;BME280_humidity;BME280_pressure;Samples;Min_cycle;Max_cycle;Signal;HPM_P1;HPM_P2
2023/08/26 06:33:12;;;;;;;;;;;;;;;27.27;52.25;96526.47;4212273;27;10408;-72
2023/08/26 06:35:15;;;;;;;;;;;;;;;27.53;51.64;96525.91;4204468;28;5722;-71
2023/08/26 06:37:18;;;;;;;;;;;;;;;27.74;51.03;96532.44;4208644;28;5783;-71
2023/08/26 06:39:21;;;;;;;;;;;;;;;27.90;50.40;96534.81;4214839;28;5911;-73
2023/08/26 06:41:24;;;;;;;;;;;;;;;28.03;49.88;96539.34;4213157;28;5690;-73
2023/08/26 06:43:28;;;;;;;;;;;;;;;28.13;49.45;96525.50;4213787;28;5833;-73
2023/08/26 06:45:31;;;;;;;;;;;;;;;28.25;49.25;96525.72;4212723;28;5106;-72
2023/08/26 06:47:34;;;;;;;;;;;;;;;28.32;48.59;96509.78;4218879;28;5789;-72
2023/08/26 06:49:38;;;;;;;;;;;;;;;28.38;48.45;96497.66;4214040;28;5718;-72
2023/08/26 06:51:41;;;;;;;;;;;;;;;28.45;48.29;96501.84;4214107;28;5681;-71
2023/08/26 06:53:44;;;;;;;;;;;;;;;28.50;47.92;96513.38;4217031;28;5936;-72
2023/08/26 06:55:49;;;;;;;;;;;;;;;28.54;47.75;96513.53;4217123;28;5701;-72
2023/08/26 06:57:52;;;;;;;;;;;;;;;28.57;47.43;96510.19;4213594;28;5775;-72
2023/08/26 06:59:54;;;;;;;;;;;;;;;28.60;47.24;96504.13;4212549;28;5698;-72
2023/08/26 07:01:57;;;;;;;;;;;;;;;28.63;47.10;96517.06;4211972;28;5701;-72
2023/08/26 07:04:04;;;;;;;;;;;;;;;28.64;46.86;96522.19;4213457;28;5694;-72
2023/08/26 07:06:08;;;;;;;;;;;;;;;28.66;46.71;96528.16;4214133;28;6387;-72
2023/08/26 07:08:11;;;;;;;;;;;;;;;28.68;46.82;96541.44;4214036;28;5900;-72
2023/08/26 07:10:14;;;;;;;;;;;;;;;28.68;46.14;96528.63;4211818;28;6011;-73
2023/08/26 07:12:17;;;;;;;;;;;;;;;28.70;46.19;96531.03;4209610;28;5764;-72
2023/08/26 07:14:19;;;;;;;;;;;;;;;28.71;45.75;96530.72;4212051;28;5781;-72
2023/08/26 07:16:22;;;;;;;;;;;;;;;28.69;45.56;96541.09;4205030;28;5856;-72
2023/08/26 07:18:25;;;;;;;;;;;;;;;28.67;45.48;96531.66;4205382;28;5777;-72
2023/08/26 07:20:28;;;;;;;;;;;;;;;28.70;45.22;96525.59;4212786;28;6448;-73
2023/08/26 07:22:32;;;;;;;;;;;;;;;28.74;45.08;96517.59;4212918;28;5887;-73
2023/08/26 07:24:35;;;;;;;;;;;;;;;28.70;44.61;96506.56;4212616;28;5785;-73
2023/08/26 07:26:38;;;;;;;;;;;;;;;28.65;44.46;96498.53;4212111;28;7769;-73
2023/08/26 07:28:41;;;;;;;;;;;;;;;28.65;44.28;96491.19;4204402;28;5689;-73
2023/08/26 07:30:44;;;;;;;;;;;;;;;28.62;44.28;96480.94;4212134;28;5895;-73
2023/08/26 07:32:47;;;;;;;;;;;;;;;28.55;44.28;96475.16;4205413;28;5678;-73
2023/08/26 07:34:51;;;;;;;;;;;;;;;28.56;44.43;96470.53;4202787;28;5697;-73
2023/08/26 07:36:54;;;;;;;;;;;;;;;28.57;44.45;96466.69;4193183;28;5709;-72
2023/08/26 07:38:58;;;;;;;;;;;;;;;28.60;44.85;96461.41;4207075;28;5777;-72
2023/08/26 07:41:01;;;;;;;;;;;;;;;28.62;44.84;96461.88;4194919;28;5731;-72
2023/08/26 07:43:04;;;;;;;;;;;;;;;28.66;44.84;96459.34;4201994;28;5705;-73
2023/08/26 07:45:08;;;;;;;;;;;;;;;28.72;44.89;96452.63;4201435;28;5777;-72
2023/08/26 07:47:11;;;;;;;;;;;;;;;28.69;44.91;96453.28;4194757;28;5692;-72
2023/08/26 07:49:14;;;;;;;;;;;;;;;28.70;44.88;96476.63;4201023;28;5706;-72
2023/08/26 07:51:17;;;;;;;;;;;;;;;28.73;44.79;96477.91;4194061;28;5726;-71
2023/08/26 07:53:20;;;;;;;;;;;;;;;28.74;44.73;96472.16;4200297;28;5819;-71
2023/08/26 07:55:24;;;;;;;;;;;;;;;28.72;44.73;96468.94;4200398;28;5718;-72
2023/08/26 07:57:27;;;;;;;;;;;;;;;28.71;44.72;96460.00;4202281;28;5828;-72
2023/08/26 07:59:30;;;;;;;;;;;;;;;28.73;44.85;96480.63;4198608;28;5707;-72
2023/08/26 08:01:33;;;;;;;;;;;;;;;28.72;44.82;96474.38;4188780;28;5778;-72
2023/08/26 08:03:36;;;;;;;;;;;;;;;28.74;44.88;96483.03;4195812;28;5701;-72
2023/08/26 08:05:39;;;;;;;;;;;;;;;28.76;44.72;96478.06;4196535;28;5773;-72
2023/08/26 08:07:42;;;;;;;;;;;;;;;28.78;44.75;96497.63;4192407;28;5832;-72
2023/08/26 08:09:45;;;;;;;;;;;;;;;28.76;44.80;96513.44;4201107;28;5693;-72
2023/08/26 08:11:49;;;;;;;;;;;;;;;28.77;44.85;96530.53;4201946;28;5686;-73
2023/08/26 08:13:52;;;;;;;;;;;;;;;28.78;44.84;96540.34;4199871;28;5828;-72
2023/08/26 08:15:55;;;;;;;;;;;;;;;28.77;44.48;96538.72;4198910;28;5811;-73
2023/08/26 08:17:57;;;;;;;;;;;;;;;28.75;44.73;96533.59;4199815;28;5781;-72
2023/08/26 08:20:01;;;;;;;;;;;;;;;28.74;44.56;96540.16;4197140;28;5977;-72
2023/08/26 08:22:04;;;;;;;;;;;;;;;28.73;44.59;96546.72;4199744;28;6920;-72
2023/08/26 08:24:07;;;;;;;;;;;;;;;28.76;44.60;96550.72;4200549;28;6375;-73
2023/08/26 08:26:11;;;;;;;;;;;;;;;28.77;44.57;96564.03;4199865;28;5881;-73
2023/08/26 08:28:15;;;;;;;;;;;;;;;28.77;44.45;96574.91;4184861;28;5922;-73
2023/08/26 08:30:18;;;;;;;;;;;;;;;28.74;44.26;96567.34;4213608;28;5696;-73
2023/08/26 08:32:22;;;;;;;;;;;;;;;28.75;44.35;96565.44;4194124;28;5895;-73
2023/08/26 08:34:25;;;;;;;;;;;;;;;28.75;44.25;96571.66;4200772;28;5733;-73
2023/08/26 08:36:27;;;;;;;;;;;;;;;28.77;44.40;96579.50;4193472;28;5921;-72
2023/08/26 08:38:30;;;;;;;;;;;;;;;28.76;44.27;96575.19;4186783;28;5815;-71
2023/08/26 08:40:33;;;;;;;;;;;;;;;28.75;44.33;96576.31;4200564;28;5805;-71
2023/08/26 08:42:39;;;;;;;;;;;;;;;28.74;44.29;96580.94;4200659;28;5753;-72
2023/08/26 08:44:46;;;;;;;;;;;;;;;28.71;44.28;96587.03;4199259;28;6446;-72
2023/08/26 08:46:49;;;;;;;;;;;;;;;28.68;44.27;96588.47;4200965;28;5914;-73
2023/08/26 08:48:51;;;;;;;;;;;;;;;28.61;44.15;96601.69;4195461;28;5713;-72
2023/08/26 08:50:57;;;;;;;;;;;;;;;28.54;44.30;96595.94;4198664;28;5673;-73
2023/08/26 08:53:00;;;;;;;;;;;;;;;28.49;44.41;96595.25;4198273;28;5701;-73
2023/08/26 08:55:05;;;;;;;;;;;;;;;28.46;44.54;96607.56;4190071;28;5859;-73
2023/08/26 08:57:12;;;;;;;;;;;;;;;28.44;44.69;96604.34;4191925;28;5760;-73
2023/08/26 08:59:16;;;;;;;;;;;;;;;28.44;44.83;96596.19;4199092;28;5705;-72
2023/08/26 09:01:21;;;;;;;;;;;;;;;28.40;45.12;96578.88;4192794;28;5888;-76
2023/08/26 09:03:24;;;;;;;;;;;;;;;28.27;45.63;96577.88;4192678;28;6423;-66
2023/08/26 09:05:28;;;;;;;;;;;;;;;28.01;46.19;96579.63;4197742;28;5757;-66
2023/08/26 09:07:32;;;;;;;;;;;;;;;27.83;46.47;96573.25;4198968;28;5780;-67
2023/08/26 09:09:35;;;;;;;;;;;;;;;27.74;46.83;96597.63;4197273;28;5681;-66
2023/08/26 09:11:51;;;;;;;;;;;;;;;27.76;47.22;96617.16;4199099;28;5689;-66
2023/08/26 09:13:54;;;;;;;;;;;;;;;27.81;47.48;96630.59;4198839;28;5682;-65
2023/08/26 09:15:57;;;;;;;;;;;;;;;27.81;47.67;96637.94;4199491;28;5860;-65
2023/08/26 09:18:02;;;;;;;;;;;;;;;27.84;48.03;96657.16;4195289;28;5754;-63
2023/08/26 09:20:06;;;;;;;;;;;;;;;27.89;48.41;96672.53;4194366;28;5685;-64
2023/08/26 09:22:09;;;;;;;;;;;;;;;27.92;48.46;96668.41;4201415;28;5769;-65
2023/08/26 09:24:13;;;;;;;;;;;;;;;27.76;48.95;96674.19;4202918;28;5796;-71
2023/08/26 09:26:16;;;;;;;;;;;;;;;27.61;49.63;96690.78;4196405;28;5797;-69
2023/08/26 09:28:19;;;;;;;;;;;;;;;27.60;49.85;96682.94;4202968;28;5725;-79
2023/08/26 09:30:22;;;;;;;;;;;;;;;27.61;50.31;96684.53;4200253;28;5701;-80
2023/08/26 09:32:32;;;;;;;;;;;;;;;27.53;50.51;96677.94;4198899;28;5698;-67
2023/08/26 09:34:37;;;;;;;;;;;;;;;27.53;50.88;96678.75;4195438;28;5784;-66
2023/08/26 09:36:40;;;;;;;;;;;;;;;27.48;51.14;96686.19;4197253;28;5991;-66
2023/08/26 09:38:47;;;;;;;;;;;;;;;27.51;51.33;96688.28;4202216;28;5770;-65
2023/08/26 09:40:50;;;;;;;;;;;;;;;27.54;51.43;96684.97;4190678;28;5984;-65
2023/08/26 09:42:52;;;;;;;;;;;;;;;27.57;51.58;96676.22;4196996;28;5810;-66
2023/08/26 09:44:56;;;;;;;;;;;;;;;27.58;51.75;96660.72;4196815;28;5677;-64
2023/08/26 09:46:59;;;;;;;;;;;;;;;27.54;51.76;96641.53;4194425;28;5705;-64
2023/08/26 09:49:02;;;;;;;;;;;;;;;27.53;52.00;96640.72;4198241;28;5699;-64
2023/08/26 09:51:09;;;;;;;;;;;;;;;27.56;52.31;96634.69;4193761;28;5828;-64
2023/08/26 09:53:12;;;;;;;;;;;;;;;27.58;52.30;96628.13;4202996;28;5679;-63
2023/08/26 09:55:15;;;;;;;;;;;;;;;27.57;52.38;96630.06;4213456;28;5771;-64
2023/08/26 09:57:18;;;;;;;;;;;;;;;27.51;52.23;96639.41;4198756;28;5701;-64
2023/08/26 09:59:20;;;;;;;;;;;;;;;27.44;52.33;96639.84;4196204;28;5706;-64
2023/08/26 10:01:24;;;;;;;;;;;;;;;27.43;52.26;96634.72;4199239;28;6017;-63
2023/08/26 10:03:28;;;;;;;;;;;;;;;27.43;52.49;96623.88;4195747;28;5828;-62
2023/08/26 10:05:33;;;;;;;;;;;;;;;27.43;52.04;96615.72;4199665;28;5682;-63
2023/08/26 10:07:39;;;;;;;;;;;;;;;27.36;52.23;96601.75;4194067;28;6357;-72
2023/08/26 10:09:47;;;;;;;;;;;;;;;27.40;52.25;96597.31;4195742;28;6030;-67
2023/08/26 10:11:55;;;;;;;;;;;;;;;27.42;52.43;96600.53;4194680;28;5745;-67
2023/08/26 10:14:00;;;;;;;;;;;;;;;27.44;52.45;96609.19;4200011;28;5690;-67
2023/08/26 10:16:07;;;;;;;;;;;;;;;27.44;52.56;96598.31;4199852;28;6189;-67
2023/08/26 10:18:15;;;;;;;;;;;;;;;27.43;52.46;96583.94;4182699;28;5926;-66
2023/08/26 10:20:18;;;;;;;;;;;;;;;27.45;52.40;96551.06;4200124;28;5690;-67
2023/08/26 10:22:21;;;;;;;;;;;;;;;27.45;52.32;96535.56;4199602;28;5701;-67
2023/08/26 10:24:25;;;;;;;;;;;;;;;27.45;52.58;96538.28;4199730;28;5690;-66
2023/08/26 10:26:28;;;;;;;;;;;;;;;27.46;52.66;96555.38;4200141;28;5690;-66
2023/08/26 10:28:34;;;;;;;;;;;;;;;27.45;52.73;96561.91;4208310;28;5739;-66
2023/08/26 10:30:37;;;;;;;;;;;;;;;27.45;52.85;96583.63;4204431;28;5868;-68
2023/08/26 10:32:43;;;;;;;;;;;;;;;27.43;52.74;96602.94;4199719;28;5805;-68
2023/08/26 10:34:56;;;;;;;;;;;;;;;27.41;52.98;96636.91;4200216;28;5768;-68
2023/08/26 10:36:59;;;;;;;;;;;;;;;27.37;53.11;96660.34;4199773;28;5690;-67
2023/08/26 10:39:02;;;;;;;;;;;;;;;27.30;53.25;96678.97;4199563;28;5849;-67
2023/08/26 10:41:10;;;;;;;;;;;;;;;27.15;53.77;96708.00;4200005;28;5694;-67
2023/08/26 10:43:13;;;;;;;;;;;;;;;26.94;54.80;96698.63;4191323;28;5678;-67
2023/08/26 10:45:16;;;;;;;;;;;;;;;26.70;56.21;96694.19;4200713;28;5694;-67
2023/08/26 10:47:34;;;;;;;;;;;;;;;26.23;56.96;96670.03;4199907;28;5686;-68
2023/08/26 10:49:37;;;;;;;;;;;;;;;25.94;57.55;96646.69;4199746;28;6392;-67
2023/08/26 10:51:45;;;;;;;;;;;;;;;25.91;57.51;96649.94;4199929;28;5851;-68
2023/08/26 10:53:48;;;;;;;;;;;;;;;25.92;56.99;96662.38;4199653;28;5678;-67
2023/08/26 10:55:53;;;;;;;;;;;;;;;25.92;57.38;96667.81;4200207;28;5700;-67
2023/08/26 10:58:12;;;;;;;;;;;;;;;25.97;57.27;96680.47;4200180;28;6509;-67
2023/08/26 11:00:16;;;;;;;;;;;;;;;25.99;57.08;96689.91;4192543;28;5829;-67
2023/08/26 11:02:23;;;;;;;;;;;;;;;26.04;56.81;96691.72;4204612;28;5672;-67
2023/08/26 11:04:26;;;;;;;;;;;;;;;26.13;56.96;96696.19;4200076;28;5904;-67
2023/08/26 11:06:29;;;;;;;;;;;;;;;26.19;56.77;96688.00;4200033;28;5894;-68
2023/08/26 11:08:32;;;;;;;;;;;;;;;26.20;56.61;96674.16;4200950;28;5710;-67
2023/08/26 11:10:36;;;;;;;;;;;;;;;26.20;56.55;96657.91;4203045;28;7822;-67
2023/08/26 11:12:38;;;;;;;;;;;;;;;26.26;56.73;96647.75;4202576;28;5701;-67
2023/08/26 11:14:43;;;;;;;;;;;;;;;26.27;56.54;96657.50;4202831;28;5817;-67
2023/08/26 11:16:45;;;;;;;;;;;;;;;26.35;56.60;96654.13;4203132;28;5705;-67
2023/08/26 11:18:52;;;;;;;;;;;;;;;26.36;56.43;96659.25;4204471;28;5880;-67
2023/08/26 11:20:55;;;;;;;;;;;;;;;26.40;56.28;96686.59;4204118;28;5694;-67
2023/08/26 11:22:59;;;;;;;;;;;;;;;26.42;56.20;96684.38;4202717;28;5288;-67
2023/08/26 11:25:02;;;;;;;;;;;;;;;26.44;56.11;96678.66;4203061;28;5841;-67
2023/08/26 11:27:05;;;;;;;;;;;;;;;26.44;55.79;96667.81;4202449;28;5800;-67
2023/08/26 11:29:11;;;;;;;;;;;;;;;26.47;55.87;96656.38;4194213;28;5776;-67
2023/08/26 11:31:15;;;;;;;;;;;;;;;26.48;55.76;96672.34;4200966;28;5875;-67
2023/08/26 11:33:20;;;;;;;;;;;;;;;26.48;55.73;96683.19;4200240;28;5742;-67
2023/08/26 11:35:24;;;;;;;;;;;;;;;26.50;55.44;96696.44;4201536;28;5701;-67
2023/08/26 11:37:27;;;;;;;;;;;;;;;26.45;55.46;96694.63;4202193;28;5844;-67
2023/08/26 11:39:30;;;;;;;;;;;;;;;26.45;55.17;96691.91;4201617;28;5801;-67
2023/08/26 11:41:33;;;;;;;;;;;;;;;26.45;55.17;96696.53;4198820;28;5785;-66
2023/08/26 11:43:36;;;;;;;;;;;;;;;26.47;55.08;96683.47;4186948;28;5813;-66
2023/08/26 11:45:42;;;;;;;;;;;;;;;26.49;54.86;96675.84;4197560;28;5788;-66
2023/08/26 11:47:46;;;;;;;;;;;;;;;26.51;55.02;96679.09;4201737;28;5682;-66
2023/08/26 11:49:49;;;;;;;;;;;;;;;26.53;54.88;96687.72;4201202;28;5847;-66
2023/08/26 11:51:52;;;;;;;;;;;;;;;26.54;54.67;96695.56;4201552;28;5705;-66
2023/08/26 11:53:55;;;;;;;;;;;;;;;26.55;54.74;96702.59;4212468;28;5770;-66
2023/08/26 11:55:58;;;;;;;;;;;;;;;26.54;54.43;96706.41;4202987;28;5769;-66
2023/08/26 11:58:02;;;;;;;;;;;;;;;26.54;54.34;96700.97;4196250;28;5851;-66
2023/08/26 12:00:10;;;;;;;;;;;;;;;26.58;54.14;96701.19;4196412;28;5872;-66
2023/08/26 12:02:22;;;;;;;;;;;;;;;26.62;54.02;96686.75;4190486;28;5993;-67
2023/08/26 12:04:26;;;;;;;;;;;;;;;26.65;53.89;96686.16;4193273;28;5780;-66
2023/08/26 12:06:29;;;;;;;;;;;;;;;26.69;53.81;96689.84;4190139;28;5156;-67
2023/08/26 12:08:33;;;;;;;;;;;;;;;26.67;53.59;96673.09;4200746;28;5705;-68
2023/08/26 12:10:35;;;;;;;;;;;;;;;26.66;53.62;96628.09;4203556;28;5776;-66
2023/08/26 12:12:39;;;;;;;;;;;;;;;26.66;53.60;96584.72;4196539;28;6777;-66
2023/08/26 12:14:41;;;;;;;;;;;;;;;26.67;53.47;96564.63;4200754;28;5764;-66
2023/08/26 12:16:45;;;;;;;;;;;;;;;26.68;53.45;96601.47;4197648;28;5692;-67
2023/08/26 12:18:52;;;;;;;;;;;;;;;26.67;53.00;96643.25;4199506;28;5789;-66
2023/08/26 12:20:56;;;;;;;;;;;;;;;26.65;53.24;96660.94;4200558;28;5709;-66
2023/08/26 12:23:01;;;;;;;;;;;;;;;26.62;53.00;96673.19;4200579;28;5845;-66
2023/08/26 12:25:05;;;;;;;;;;;;;;;26.58;53.32;96663.22;4200666;28;5685;-67
2023/08/26 12:27:09;;;;;;;;;;;;;;;26.59;53.44;96656.69;4194012;28;5981;-67
2023/08/26 12:29:12;;;;;;;;;;;;;;;26.60;53.17;96645.56;4200004;28;5780;-68
2023/08/26 12:31:15;;;;;;;;;;;;;;;26.55;52.97;96656.50;4198186;28;5580;-65
2023/08/26 12:33:17;;;;;;;;;;;;;;;26.49;53.04;96679.38;4186079;28;5812;-66
2023/08/26 12:35:28;;;;;;;;;;;;;;;26.52;53.42;96678.00;4194536;28;7071;-66
2023/08/26 12:37:33;;;;;;;;;;;;;;;26.55;53.10;96686.31;4195404;28;5875;-67
2023/08/26 12:39:35;;;;;;;;;;;;;;;26.51;53.10;96677.19;4191209;28;6565;-67
2023/08/26 12:41:39;;;;;;;;;;;;;;;26.51;53.19;96674.47;4190421;28;5765;-66
2023/08/26 12:43:41;;;;;;;;;;;;;;;26.55;53.10;96667.34;4195906;28;5749;-66
2023/08/26 12:45:45;;;;;;;;;;;;;;;26.62;53.15;96654.22;4191631;28;5677;-67
2023/08/26 12:47:48;;;;;;;;;;;;;;;26.66;52.81;96649.78;4193649;28;5106;-66
2023/08/26 12:49:51;;;;;;;;;;;;;;;26.74;52.85;96652.91;4200094;28;5848;-66
2023/08/26 12:51:54;;;;;;;;;;;;;;;26.80;52.67;96649.00;4191345;28;5856;-66
2023/08/26 12:53:58;;;;;;;;;;;;;;;26.86;52.26;96651.31;4193139;28;5806;-66
2023/08/26 12:56:01;;;;;;;;;;;;;;;26.95;52.54;96656.81;4187121;28;6108;-66
2023/08/26 12:58:06;;;;;;;;;;;;;;;27.02;52.23;96656.47;4188677;28;5836;-66
2023/08/26 13:00:10;;;;;;;;;;;;;;;27.07;52.29;96649.03;4189053;28;5869;-66
2023/08/26 13:02:13;;;;;;;;;;;;;;;27.12;51.90;96650.84;4194097;28;5998;-66
2023/08/26 13:04:16;;;;;;;;;;;;;;;27.13;52.10;96653.25;4191595;28;5930;-66
2023/08/26 13:06:20;;;;;;;;;;;;;;;27.09;52.02;96654.97;4200159;28;5796;-66
2023/08/26 13:08:22;;;;;;;;;;;;;;;27.11;51.79;96644.59;4196693;28;5805;-66
2023/08/26 13:10:27;;;;;;;;;;;;;;;27.15;51.69;96651.03;4200109;28;5690;-66
2023/08/26 13:12:30;;;;;;;;;;;;;;;27.16;51.81;96655.34;4200334;28;5705;-66
2023/08/26 13:14:33;;;;;;;;;;;;;;;27.15;51.75;96645.59;4200050;28;5821;-65
2023/08/26 13:16:36;;;;;;;;;;;;;;;27.16;51.54;96646.41;4200491;28;5780;-66
2023/08/26 13:18:42;;;;;;;;;;;;;;;27.17;51.36;96635.25;4200389;28;5690;-66
2023/08/26 13:20:47;;;;;;;;;;;;;;;27.18;51.31;96627.91;4195179;28;5954;-66
2023/08/26 13:22:50;;;;;;;;;;;;;;;27.18;51.37;96625.19;4188511;28;5681;-66
2023/08/26 13:24:53;;;;;;;;;;;;;;;27.14;51.20;96625.00;4196580;28;5932;-67
2023/08/26 13:26:57;;;;;;;;;;;;;;;27.11;50.94;96617.47;4197749;28;5802;-67
2023/08/26 13:29:00;;;;;;;;;;;;;;;27.14;51.14;96611.44;4196635;28;5747;-67
2023/08/26 13:31:02;;;;;;;;;;;;;;;27.14;51.09;96616.88;4195770;28;5685;-67
2023/08/26 13:33:06;;;;;;;;;;;;;;;27.16;51.04;96606.50;4197374;28;5693;-66
2023/08/26 13:35:09;;;;;;;;;;;;;;;27.16;50.84;96600.28;4185674;28;5802;-66
2023/08/26 13:37:13;;;;;;;;;;;;;;;27.12;50.93;96589.22;4199193;28;5698;-66
2023/08/26 13:39:16;;;;;;;;;;;;;;;27.17;51.02;96588.31;4193644;28;7272;-66
2023/08/26 13:41:18;;;;;;;;;;;;;;;27.23;50.80;96585.19;4183192;28;5814;-67
2023/08/26 13:43:23;;;;;;;;;;;;;;;27.27;51.06;96594.31;4194677;28;5778;-67
2023/08/26 13:45:26;;;;;;;;;;;;;;;27.29;51.09;96583.16;4194993;28;6594;-67
2023/08/26 13:47:28;;;;;;;;;;;;;;;27.29;51.27;96585.88;4189031;28;6883;-67
2023/08/26 13:49:31;;;;;;;;;;;;;;;27.30;51.31;96575.84;4196720;28;5840;-67
2023/08/26 13:51:34;;;;;;;;;;;;;;;27.28;51.39;96570.69;4191559;28;5682;-67
2023/08/26 13:53:37;;;;;;;;;;;;;;;27.20;51.72;96566.00;4183254;28;5684;-75
2023/08/26 13:55:39;;;;;;;;;;;;;;;27.20;51.56;96571.44;4186012;28;5772;-75
2023/08/26 13:57:43;;;;;;;;;;;;;;;27.20;51.51;96566.81;4185220;28;7852;-69
2023/08/26 13:59:47;;;;;;;;;;;;;;;27.24;51.67;96556.94;4184850;28;5882;-70
2023/08/26 14:01:50;;;;;;;;;;;;;;;27.32;51.78;96546.50;4192600;28;5801;-76
2023/08/26 14:03:54;;;;;;;;;;;;;;;27.36;51.56;96547.47;4183670;28;5973;-70
2023/08/26 14:05:57;;;;;;;;;;;;;;;27.39;51.31;96530.56;4185703;28;5900;-69
2023/08/26 14:07:59;;;;;;;;;;;;;;;27.40;51.73;96521.31;4186895;28;6013;-69
2023/08/26 14:10:02;;;;;;;;;;;;;;;27.39;51.82;96530.56;4196576;28;7749;-71
2023/08/26 14:12:06;;;;;;;;;;;;;;;27.38;51.79;96515.38;4196798;28;5931;-74
2023/08/26 14:14:09;;;;;;;;;;;;;;;27.38;51.87;96524.31;4196838;28;5683;-71
2023/08/26 14:16:13;;;;;;;;;;;;;;;27.39;51.75;96512.34;4186361;28;6646;-68
2023/08/26 14:18:15;;;;;;;;;;;;;;;27.44;51.95;96508.75;4187638;28;5723;-73
2023/08/26 14:20:18;;;;;;;;;;;;;;;27.42;51.49;96502.81;4186537;28;5842;-76
2023/08/26 14:22:21;;;;;;;;;;;;;;;27.42;51.44;96503.63;4194334;28;5914;-73
2023/08/26 14:24:24;;;;;;;;;;;;;;;27.45;51.55;96502.19;4190951;28;5718;-69
2023/08/26 14:26:27;;;;;;;;;;;;;;;27.46;51.71;96501.88;4204485;28;5911;-70
2023/08/26 14:28:29;;;;;;;;;;;;;;;27.48;51.63;96501.56;4198273;28;5814;-67
2023/08/26 14:30:33;;;;;;;;;;;;;;;27.47;51.78;96495.34;4193134;28;5916;-77
2023/08/26 14:32:37;;;;;;;;;;;;;;;27.48;51.50;96493.44;4182363;28;5916;-72
2023/08/26 14:34:40;;;;;;;;;;;;;;;27.47;51.69;96499.97;4196216;28;5869;-70
2023/08/26 14:36:43;;;;;;;;;;;;;;;27.49;51.48;96506.69;4198847;28;5694;-68
2023/08/26 14:38:46;;;;;;;;;;;;;;;27.51;51.48;96509.91;4187760;28;5938;-77
2023/08/26 14:40:50;;;;;;;;;;;;;;;27.53;51.53;96513.13;4188473;28;5722;-74
2023/08/26 14:42:52;;;;;;;;;;;;;;;27.56;51.15;96519.84;4204132;28;5694;-73
2023/08/26 14:44:55;;;;;;;;;;;;;;;27.54;51.50;96519.34;4205426;28;5745;-69
2023/08/26 14:46:58;;;;;;;;;;;;;;;27.54;51.49;96527.50;4203360;28;5773;-68
2023/08/26 14:49:02;;;;;;;;;;;;;;;27.53;51.41;96520.47;4203564;28;5878;-72
2023/08/26 14:51:05;;;;;;;;;;;;;;;27.51;51.30;96528.09;4188445;28;5853;-77
2023/08/26 14:53:09;;;;;;;;;;;;;;;27.51;51.27;96531.63;4194839;28;5101;-69
2023/08/26 14:55:11;;;;;;;;;;;;;;;27.51;51.13;96528.09;4203351;28;5773;-76
2023/08/26 14:57:14;;;;;;;;;;;;;;;27.53;51.18;96536.75;4194656;28;7706;-75
2023/08/26 14:59:16;;;;;;;;;;;;;;;27.57;51.19;96532.31;4203749;28;5709;-71
2023/08/26 15:01:19;;;;;;;;;;;;;;;27.60;51.27;96530.88;4193408;28;5689;-75
2023/08/26 15:03:22;;;;;;;;;;;;;;;27.62;51.06;96529.47;4202249;28;5702;-71
2023/08/26 15:05:27;;;;;;;;;;;;;;;27.61;50.86;96538.72;4187959;28;5923;-70
2023/08/26 15:07:29;;;;;;;;;;;;;;;27.64;51.06;96540.03;4189135;28;5818;-70
2023/08/26 15:09:32;;;;;;;;;;;;;;;27.68;50.94;96539.13;4195083;28;6431;-73
2023/08/26 15:11:35;;;;;;;;;;;;;;;27.70;50.92;96536.09;4202912;28;5701;-76
2023/08/26 15:13:38;;;;;;;;;;;;;;;27.72;50.88;96540.09;4202190;28;5702;-70
2023/08/26 15:15:46;;;;;;;;;;;;;;;27.72;50.83;96540.09;4202155;28;5761;-70
2023/08/26 15:17:49;;;;;;;;;;;;;;;27.73;50.77;96547.13;4207711;28;5680;-76
2023/08/26 15:19:52;;;;;;;;;;;;;;;27.75;50.60;96533.28;4199466;28;5689;-73
2023/08/26 15:21:58;;;;;;;;;;;;;;;27.75;50.81;96539.50;4196888;28;5836;-75
2023/08/26 15:24:02;;;;;;;;;;;;;;;27.77;50.75;96529.13;4192456;28;5705;-76
2023/08/26 15:26:05;;;;;;;;;;;;;;;27.78;50.58;96530.72;4192281;28;5773;-71
2023/08/26 15:28:09;;;;;;;;;;;;;;;27.78;50.58;96527.22;4194136;28;5690;-67
2023/08/26 15:30:12;;;;;;;;;;;;;;;27.80;50.81;96522.28;4193019;28;6400;-73
2023/08/26 15:32:15;;;;;;;;;;;;;;;27.79;50.60;96521.47;4202319;28;5701;-71
2023/08/26 15:34:18;;;;;;;;;;;;;;;27.77;50.69;96523.69;4199910;28;5706;-68
2023/08/26 15:36:21;;;;;;;;;;;;;;;27.77;51.04;96526.41;4201944;28;5906;-67
2023/08/26 15:38:25;;;;;;;;;;;;;;;27.77;50.80;96520.19;4190434;28;5830;-71
2023/08/26 15:40:28;;;;;;;;;;;;;;;27.77;50.96;96529.13;4192450;28;5802;-71
2023/08/26 15:42:33;;;;;;;;;;;;;;;27.76;50.87;96524.00;4186721;28;7805;-69
2023/08/26 15:44:35;;;;;;;;;;;;;;;27.73;51.17;96519.97;4177161;28;5905;-68
2023/08/26 15:46:38;;;;;;;;;;;;;;;27.68;51.17;96522.84;4186293;28;7893;-70
2023/08/26 15:48:41;;;;;;;;;;;;;;;27.54;51.49;96527.50;4198207;28;5698;-67
2023/08/26 15:50:44;;;;;;;;;;;;;;;27.48;51.69;96528.72;4183817;28;5856;-74
2023/08/26 15:52:47;;;;;;;;;;;;;;;27.45;51.75;96529.34;4188689;28;5104;-67
2023/08/26 15:54:51;;;;;;;;;;;;;;;27.44;51.91;96523.13;4194789;28;5776;-71
2023/08/26 15:56:54;;;;;;;;;;;;;;;27.43;51.71;96521.50;4197931;28;5847;-75
2023/08/26 15:58:57;;;;;;;;;;;;;;;27.44;51.82;96516.88;4192030;28;5832;-74
2023/08/26 16:01:00;;;;;;;;;;;;;;;27.41;51.98;96509.34;4199423;28;6486;-66
2023/08/26 16:03:04;;;;;;;;;;;;;;;27.38;51.99;96513.47;4199841;28;5681;-69
2023/08/26 16:05:07;;;;;;;;;;;;;;;27.38;52.00;96508.03;4189218;28;5772;-76
2023/08/26 16:07:10;;;;;;;;;;;;;;;27.42;52.14;96508.25;4201910;28;5892;-75
2023/08/26 16:09:16;;;;;;;;;;;;;;;27.42;52.06;96516.41;4197514;28;5798;-69
2023/08/26 16:11:21;;;;;;;;;;;;;;;27.38;52.10;96512.69;4187852;28;5810;-70
2023/08/26 16:13:24;;;;;;;;;;;;;;;27.29;52.20;96515.31;4195134;28;5727;-70
2023/08/26 16:15:27;;;;;;;;;;;;;;;27.30;52.19;96508.00;4188777;28;6810;-70
2023/08/26 16:17:30;;;;;;;;;;;;;;;27.28;52.18;96516.41;4200057;28;5697;-73
2023/08/26 16:19:33;;;;;;;;;;;;;;;27.28;52.44;96516.41;4186950;28;5830;-71
2023/08/26 16:21:36;;;;;;;;;;;;;;;27.28;52.32;96517.22;4184486;28;5702;-75
2023/08/26 16:23:39;;;;;;;;;;;;;;;27.28;52.46;96514.50;4183700;28;6518;-71
2023/08/26 16:25:41;;;;;;;;;;;;;;;27.29;52.38;96509.88;4179657;28;5830;-69
2023/08/26 16:27:46;;;;;;;;;;;;;;;27.26;52.48;96502.38;4170666;28;6953;-68
2023/08/26 16:29:48;;;;;;;;;;;;;;;27.24;52.61;96501.88;4177726;28;5819;-70
2023/08/26 16:31:51;;;;;;;;;;;;;;;27.20;52.44;96500.91;4181666;28;5862;-69
2023/08/26 16:33:54;;;;;;;;;;;;;;;27.21;52.71;96497.88;4181090;28;5798;-70
2023/08/26 16:35:57;;;;;;;;;;;;;;;27.24;52.67;96489.09;4189991;28;5805;-72
2023/08/26 16:38:01;;;;;;;;;;;;;;;27.27;52.75;96495.81;4189242;28;5785;-74
2023/08/26 16:40:04;;;;;;;;;;;;;;;27.30;52.68;96494.44;4195189;28;5689;-74
2023/08/26 16:42:07;;;;;;;;;;;;;;;27.30;52.71;96489.81;4177588;28;5837;-72
2023/08/26 16:44:11;;;;;;;;;;;;;;;27.28;52.73;96492.00;4182369;28;7739;-73
2023/08/26 16:46:14;;;;;;;;;;;;;;;27.27;52.73;96483.06;4182865;28;6057;-70
2023/08/26 16:48:17;;;;;;;;;;;;;;;27.26;52.81;96478.75;4181306;28;6022;-67
2023/08/26 16:50:20;;;;;;;;;;;;;;;27.28;52.89;96479.22;4183587;28;7873;-70
2023/08/26 16:52:23;;;;;;;;;;;;;;;27.30;52.78;96481.66;4184973;28;5706;-74
2023/08/26 16:54:24;;;;;;;;;;;;;;;27.30;52.85;96484.38;4189724;28;5814;-75
2023/08/26 16:56:27;;;;;;;;;;;;;;;27.30;52.92;96487.09;4188183;28;5633;-71
2023/08/26 16:58:30;;;;;;;;;;;;;;;27.32;53.07;96486.78;4181119;28;5780;-73
2023/08/26 17:00:34;;;;;;;;;;;;;;;27.33;52.91;96472.09;4181831;28;5756;-68
2023/08/26 17:02:37;;;;;;;;;;;;;;;27.31;52.88;96471.59;4182485;28;6606;-71
2023/08/26 17:04:40;;;;;;;;;;;;;;;27.29;52.81;96463.75;4183794;28;5845;-72
2023/08/26 17:06:43;;;;;;;;;;;;;;;27.25;52.85;96471.72;4183821;28;6392;-69
2023/08/26 17:08:46;;;;;;;;;;;;;;;27.25;52.91;96471.72;4184637;28;5858;-68
2023/08/26 17:10:51;;;;;;;;;;;;;;;27.26;53.09;96486.88;4183006;28;5888;-70
2023/08/26 17:12:54;;;;;;;;;;;;;;;27.27;53.04;96488.47;4184145;28;6712;-75
2023/08/26 17:14:57;;;;;;;;;;;;;;;27.27;53.15;96480.34;4181747;28;5849;-74
2023/08/26 17:17:02;;;;;;;;;;;;;;;27.22;53.14;96472.34;4180060;28;5843;-70
2023/08/26 17:19:05;;;;;;;;;;;;;;;27.19;52.94;96467.53;4184979;28;5893;-76
2023/08/26 17:21:08;;;;;;;;;;;;;;;27.19;53.06;96464.81;4178741;28;5780;-72
2023/08/26 17:23:11;;;;;;;;;;;;;;;27.19;53.00;96464.81;4175455;28;5821;-68
2023/08/26 17:25:13;;;;;;;;;;;;;;;27.17;52.94;96467.00;4171719;28;5742;-70